createdAt,value
2019-01-11T00:00:28.363Z,99.90
2019-01-11T00:03:00.968Z,99.90
2019-01-11T00:05:33.611Z,99.90
2019-01-11T00:08:06.247Z,99.90
2019-01-11T00:10:38.666Z,99.90
2019-01-11T00:13:10.976Z,99.90
2019-01-11T00:15:43.414Z,99.90
2019-01-11T00:18:15.882Z,99.90
2019-01-11T00:20:48.149Z,99.90
2019-01-11T00:23:20.756Z,99.90
2019-01-11T00:25:53.476Z,99.90
2019-01-11T00:28:26.000Z,99.90
2019-01-11T00:30:58.641Z,99.90
2019-01-11T00:33:30.902Z,99.90
2019-01-11T00:36:03.910Z,99.90
2019-01-11T00:38:36.308Z,99.90
2019-01-11T00:41:09.054Z,99.90
2019-01-11T00:43:41.655Z,99.90
2019-01-11T00:46:13.958Z,99.90
2019-01-11T00:48:46.498Z,99.90
2019-01-11T00:51:20.820Z,99.90
2019-01-11T00:53:53.306Z,99.90
2019-01-11T00:56:26.181Z,99.90
2019-01-11T00:58:58.455Z,99.90
2019-01-11T01:01:30.597Z,99.90
2019-01-11T01:04:03.086Z,99.90
2019-01-11T01:06:35.318Z,99.90
2019-01-11T01:09:10.380Z,99.90
2019-01-11T01:11:42.904Z,99.90
2019-01-11T01:14:15.330Z,99.90
2019-01-11T01:16:47.625Z,99.90
2019-01-11T01:19:20.206Z,99.90
2019-01-11T01:21:52.703Z,99.90
2019-01-11T01:24:25.262Z,99.90
2019-01-11T01:26:57.649Z,99.90
2019-01-11T01:29:30.087Z,99.90
2019-01-11T01:32:02.882Z,99.90
2019-01-11T01:34:35.078Z,99.90
2019-01-11T01:37:07.658Z,99.90
2019-01-11T01:39:40.009Z,99.90
2019-01-11T01:42:12.491Z,99.90
2019-01-11T01:44:45.357Z,99.90
2019-01-11T01:47:17.952Z,99.90
2019-01-11T01:49:50.198Z,99.90
2019-01-11T01:52:22.499Z,99.90
2019-01-11T01:54:54.798Z,99.90
2019-01-11T01:57:27.019Z,99.90
2019-01-11T01:59:59.307Z,99.90
2019-01-11T02:02:31.752Z,99.90
2019-01-11T02:05:04.354Z,99.90
2019-01-11T02:07:36.709Z,99.90
2019-01-11T02:10:11.444Z,99.90
2019-01-11T02:12:43.887Z,99.90
2019-01-11T02:15:16.280Z,99.90
2019-01-11T02:17:48.669Z,99.90
2019-01-11T02:20:21.472Z,99.90
2019-01-11T02:22:54.368Z,99.90
2019-01-11T02:25:26.827Z,99.90
2019-01-11T02:27:58.993Z,99.90
2019-01-11T02:30:31.446Z,99.90
2019-01-11T02:33:03.806Z,99.90
2019-01-11T02:35:36.053Z,99.90
2019-01-11T02:38:08.396Z,99.90
2019-01-11T02:40:51.984Z,99.90
2019-01-11T02:43:24.286Z,99.90
2019-01-11T02:46:07.958Z,99.90
2019-01-11T02:48:40.787Z,99.90
2019-01-11T02:51:24.436Z,99.90
2019-01-11T02:53:56.868Z,99.90
2019-01-11T02:56:29.316Z,99.90
2019-01-11T02:59:02.924Z,99.90
2019-01-11T03:01:46.180Z,99.90
2019-01-11T03:04:20.101Z,99.90
2019-01-11T03:07:03.823Z,99.90
2019-01-11T03:09:54.967Z,99.90
2019-01-11T03:12:37.951Z,99.90
2019-01-11T03:15:12.891Z,99.90
2019-01-11T03:17:45.529Z,99.90
2019-01-11T03:20:29.517Z,99.90
2019-01-11T03:23:01.983Z,99.90
2019-01-11T03:25:34.470Z,99.90
2019-01-11T03:28:06.867Z,99.90
2019-01-11T03:30:39.173Z,99.90
2019-01-11T03:33:11.596Z,99.90
2019-01-11T03:35:44.197Z,99.90
2019-01-11T03:38:16.483Z,99.90
2019-01-11T03:40:48.926Z,99.90
2019-01-11T03:43:21.303Z,99.90
2019-01-11T03:45:53.680Z,99.90
2019-01-11T03:48:26.261Z,99.90
2019-01-11T03:51:17.472Z,99.90
2019-01-11T03:53:49.739Z,99.90
2019-01-11T03:56:22.436Z,99.90
2019-01-11T03:59:06.280Z,99.90
2019-01-11T04:01:38.968Z,99.90
2019-01-11T04:04:11.376Z,99.90
2019-01-11T04:06:43.954Z,99.90
2019-01-11T04:09:16.245Z,99.90
2019-01-11T04:11:48.690Z,99.90
2019-01-11T04:14:22.906Z,99.90
2019-01-11T04:17:05.939Z,99.90
2019-01-11T04:19:38.668Z,99.90
2019-01-11T04:22:27.234Z,99.90
2019-01-11T04:25:11.131Z,99.90
2019-01-11T04:27:43.571Z,99.90
2019-01-11T04:30:25.119Z,99.90
2019-01-11T04:32:57.556Z,99.90
2019-01-11T04:35:30.124Z,99.90
2019-01-11T04:38:02.727Z,99.90
2019-01-11T04:40:35.131Z,99.90
2019-01-11T04:43:07.701Z,99.90
2019-01-11T04:45:40.302Z,99.90
2019-01-11T04:48:12.501Z,99.90
2019-01-11T04:50:44.968Z,99.90
2019-01-11T04:53:35.983Z,99.90
2019-01-11T04:56:08.518Z,99.90
2019-01-11T04:58:40.834Z,99.90
2019-01-11T05:01:13.242Z,99.90
2019-01-11T05:03:45.685Z,99.90
2019-01-11T05:06:18.026Z,99.90
2019-01-11T05:08:50.352Z,99.90
2019-01-11T05:11:22.927Z,99.90
2019-01-11T05:13:57.448Z,99.90
2019-01-11T05:16:29.904Z,99.90
2019-01-11T05:19:02.183Z,99.90
2019-01-11T05:21:34.696Z,99.90
2019-01-11T05:24:07.737Z,99.90
2019-01-11T05:26:41.564Z,99.90
2019-01-11T05:29:13.831Z,99.90
2019-01-11T05:31:46.530Z,99.90
2019-01-11T05:34:18.922Z,99.90
2019-01-11T05:36:51.524Z,99.90
2019-01-11T05:39:23.873Z,99.90
2019-01-11T05:41:56.590Z,99.90
2019-01-11T05:44:28.864Z,99.90
2019-01-11T05:47:01.543Z,99.90
2019-01-11T05:49:34.375Z,99.90
2019-01-11T05:52:07.037Z,99.90
2019-01-11T05:54:39.350Z,99.90
2019-01-11T05:57:11.940Z,99.90
2019-01-11T05:59:44.423Z,99.90
2019-01-11T06:02:16.906Z,99.90
2019-01-11T06:04:51.227Z,99.90
2019-01-11T06:07:25.819Z,99.90
2019-01-11T06:09:58.241Z,99.90
2019-01-11T06:12:30.652Z,99.90
2019-01-11T06:15:03.081Z,99.90
2019-01-11T06:17:36.212Z,99.90
2019-01-11T06:20:13.560Z,99.90
2019-01-11T06:22:58.582Z,99.90
2019-01-11T06:25:32.321Z,99.90
2019-01-11T06:28:04.935Z,99.90
2019-01-11T06:30:37.450Z,99.90
2019-01-11T06:33:10.048Z,99.90
2019-01-11T06:35:50.231Z,99.90
2019-01-11T06:38:23.577Z,99.90
2019-01-11T06:40:56.270Z,99.90
2019-01-11T06:43:28.847Z,99.90
2019-01-11T06:46:01.460Z,99.90
2019-01-11T06:48:41.986Z,99.90
2019-01-11T06:51:14.731Z,99.90
2019-01-11T06:53:47.170Z,99.90
2019-01-11T06:56:19.654Z,99.90
2019-01-11T06:58:51.954Z,99.90
2019-01-11T07:01:24.665Z,99.90
2019-01-11T07:03:57.141Z,99.90
2019-01-11T07:06:29.638Z,99.90
2019-01-11T07:09:02.024Z,99.90
2019-01-11T07:11:34.392Z,99.90
2019-01-11T07:14:06.926Z,99.90
2019-01-11T07:16:40.221Z,99.90
2019-01-11T07:19:12.765Z,99.90
2019-01-11T07:21:46.407Z,99.90
2019-01-11T07:24:19.064Z,99.90
2019-01-11T07:26:51.811Z,99.90
2019-01-11T07:29:24.632Z,99.90
2019-01-11T07:32:00.778Z,99.90
2019-01-11T07:34:33.550Z,99.90
2019-01-11T07:37:06.158Z,99.90
2019-01-11T07:39:38.907Z,99.90
2019-01-11T07:42:11.529Z,99.90
2019-01-11T07:44:43.951Z,99.90
2019-01-11T07:47:16.479Z,99.90
2019-01-11T07:49:49.678Z,99.90
2019-01-11T07:52:22.395Z,99.90
2019-01-11T07:54:54.863Z,99.90
2019-01-11T07:57:27.198Z,99.90
2019-01-11T07:59:59.623Z,99.90
2019-01-11T08:02:32.307Z,99.90
2019-01-11T08:05:05.192Z,99.90
2019-01-11T08:07:37.588Z,99.90
2019-01-11T08:10:10.334Z,99.90
2019-01-11T08:12:43.346Z,99.90
2019-01-11T08:15:16.430Z,99.90
2019-01-11T08:17:48.888Z,99.90
2019-01-11T08:20:21.085Z,99.90
2019-01-11T08:22:53.600Z,99.90
2019-01-11T08:25:25.902Z,99.90
2019-01-11T08:27:57.996Z,99.90
2019-01-11T08:30:30.473Z,99.90
2019-01-11T08:33:03.204Z,99.90
2019-01-11T08:35:36.027Z,99.90
2019-01-11T08:38:09.433Z,99.90
2019-01-11T08:40:42.162Z,99.90
2019-01-11T08:43:14.573Z,99.90
2019-01-11T08:45:47.086Z,99.90
2019-01-11T08:48:19.706Z,99.90
2019-01-11T08:50:52.190Z,98.70
2019-01-11T08:53:24.611Z,98.50
2019-01-11T08:55:57.006Z,97.20
2019-01-11T08:58:30.031Z,96.30
2019-01-11T09:01:02.421Z,95.90
2019-01-11T09:03:34.915Z,96.40
2019-01-11T09:06:08.241Z,95.80
2019-01-11T09:08:40.716Z,96.10
2019-01-11T09:11:13.240Z,96.00
2019-01-11T09:13:45.735Z,96.10
2019-01-11T09:16:20.737Z,95.30
2019-01-11T09:18:57.329Z,96.00
2019-01-11T09:21:29.892Z,95.30
2019-01-11T09:24:02.197Z,94.90
2019-01-11T09:26:34.758Z,94.50
2019-01-11T09:29:07.231Z,94.40
2019-01-11T09:31:39.568Z,95.60
2019-01-11T09:34:11.894Z,96.50
2019-01-11T09:36:44.421Z,96.60
2019-01-11T09:39:16.797Z,96.50
2019-01-11T09:41:49.399Z,96.50
2019-01-11T09:44:21.955Z,96.30
2019-01-11T09:46:54.190Z,96.20
2019-01-11T09:49:26.624Z,95.40
2019-01-11T09:51:59.066Z,95.80
2019-01-11T09:54:31.352Z,95.20
2019-01-11T09:57:04.169Z,94.30
2019-01-11T09:59:36.696Z,93.30
2019-01-11T10:02:47.742Z,92.70
2019-01-11T10:05:20.314Z,92.30
2019-01-11T10:07:52.587Z,89.40
2019-01-11T10:10:25.082Z,88.70
2019-01-11T10:12:57.382Z,85.40
2019-01-11T10:15:29.903Z,85.00
2019-01-11T10:18:02.529Z,82.80
2019-01-11T10:20:34.825Z,83.10
2019-01-11T10:23:07.457Z,81.50
2019-01-11T10:25:40.138Z,80.80
2019-01-11T10:28:14.356Z,77.70
2019-01-11T10:30:46.897Z,73.20
2019-01-11T10:33:19.468Z,74.00
2019-01-11T10:35:52.083Z,71.20
2019-01-11T10:38:24.632Z,70.50
2019-01-11T10:40:56.937Z,68.10
2019-01-11T10:43:29.260Z,67.90
2019-01-11T10:46:03.304Z,66.90
2019-01-11T10:48:35.698Z,65.60
2019-01-11T10:51:08.317Z,64.30
2019-01-11T10:53:40.890Z,64.80
2019-01-11T10:56:13.470Z,67.50
2019-01-11T10:58:46.236Z,68.70
2019-01-11T11:01:18.582Z,67.40
2019-01-11T11:03:51.243Z,68.60
2019-01-11T11:06:23.611Z,71.70
2019-01-11T11:08:56.359Z,72.40
2019-01-11T11:11:28.656Z,74.20
2019-01-11T11:14:01.077Z,75.70
2019-01-11T11:16:33.767Z,74.10
2019-01-11T11:19:06.149Z,69.10
2019-01-11T11:21:38.442Z,67.80
2019-01-11T11:24:10.843Z,66.00
2019-01-11T11:26:43.338Z,61.40
2019-01-11T11:29:16.211Z,59.40
2019-01-11T11:31:48.847Z,59.00
2019-01-11T11:34:30.433Z,59.70
2019-01-11T11:37:04.038Z,59.90
2019-01-11T11:39:36.502Z,63.50
2019-01-11T11:42:08.870Z,65.50
2019-01-11T11:44:42.962Z,68.50
2019-01-11T11:47:16.604Z,68.40
2019-01-11T11:49:49.128Z,68.30
2019-01-11T11:52:21.661Z,67.30
2019-01-11T11:54:54.022Z,64.30
2019-01-11T11:57:26.587Z,61.80
2019-01-11T11:59:59.182Z,59.50
2019-01-11T12:02:31.798Z,60.00
2019-01-11T12:05:04.330Z,57.40
2019-01-11T12:07:36.701Z,54.40
2019-01-11T12:10:10.746Z,55.40
2019-01-11T12:12:43.050Z,57.50
2019-01-11T12:15:16.360Z,60.40
2019-01-11T12:18:08.209Z,54.90
2019-01-11T12:20:47.158Z,61.90
2019-01-11T12:23:19.704Z,56.60
2019-01-11T12:25:52.029Z,57.80
2019-01-11T12:28:24.436Z,57.60
2019-01-11T12:30:57.188Z,58.70
2019-01-11T12:33:29.503Z,60.00
2019-01-11T12:36:02.272Z,60.40
2019-01-11T12:38:34.579Z,59.70
2019-01-11T12:41:08.919Z,59.50
2019-01-11T12:43:41.363Z,59.60
2019-01-11T12:46:13.913Z,59.50
2019-01-11T12:48:48.327Z,59.40
2019-01-11T12:51:20.740Z,58.80
2019-01-11T12:53:53.156Z,59.30
2019-01-11T12:56:25.821Z,59.10
2019-01-11T12:58:58.192Z,61.50
2019-01-11T13:01:30.861Z,62.60
2019-01-11T13:04:03.394Z,67.60
2019-01-11T13:06:36.105Z,67.50
2019-01-11T13:09:10.666Z,60.50
2019-01-11T13:11:43.088Z,65.20
2019-01-11T13:14:27.651Z,68.30
2019-01-11T13:17:00.260Z,62.20
2019-01-11T13:19:32.646Z,66.50
2019-01-11T13:22:05.280Z,60.70
2019-01-11T13:24:56.475Z,67.10
2019-01-11T13:27:29.001Z,62.60
2019-01-11T13:30:01.453Z,62.00
2019-01-11T13:32:33.810Z,62.50
2019-01-11T13:35:06.750Z,64.60
2019-01-11T13:37:39.495Z,66.10
2019-01-11T13:40:17.377Z,63.50
2019-01-11T13:42:50.006Z,65.90
2019-01-11T13:45:22.783Z,65.60
2019-01-11T13:47:56.217Z,65.50
2019-01-11T13:50:44.645Z,65.40
2019-01-11T13:53:19.520Z,65.90
2019-01-11T13:55:52.033Z,66.50
2019-01-11T13:58:26.176Z,65.90
2019-01-11T14:00:58.689Z,65.80
2019-01-11T14:03:31.234Z,67.40
2019-01-11T14:06:03.633Z,67.70
2019-01-11T14:08:36.787Z,67.50
2019-01-11T14:11:09.390Z,68.00
2019-01-11T14:13:41.795Z,69.20
2019-01-11T14:16:14.299Z,69.40
2019-01-11T14:18:49.900Z,69.90
2019-01-11T14:21:22.385Z,70.30
2019-01-11T14:23:54.694Z,70.70
2019-01-11T14:26:27.404Z,71.10
2019-01-11T14:28:59.742Z,70.40
2019-01-11T14:31:32.359Z,71.50
2019-01-11T14:34:04.973Z,72.30
2019-01-11T14:36:37.449Z,72.60
2019-01-11T14:39:11.461Z,72.10
2019-01-11T14:41:44.092Z,78.40
2019-01-11T14:44:17.500Z,82.10
2019-01-11T14:46:49.904Z,73.80
2019-01-11T14:49:22.440Z,72.60
2019-01-11T14:51:54.770Z,73.10
2019-01-11T14:54:27.239Z,73.10
2019-01-11T14:56:59.659Z,73.00
2019-01-11T14:59:32.205Z,72.50
2019-01-11T15:02:04.826Z,73.80
2019-01-11T15:04:37.391Z,73.80
2019-01-11T15:07:09.781Z,75.10
2019-01-11T15:09:42.229Z,74.70
2019-01-11T15:12:14.778Z,74.90
2019-01-11T15:14:47.275Z,75.60
2019-01-11T15:17:19.727Z,74.90
2019-01-11T15:19:52.170Z,76.00
2019-01-11T15:22:26.660Z,75.50
2019-01-11T15:24:58.705Z,75.50
2019-01-11T15:27:31.196Z,75.60
2019-01-11T15:30:03.642Z,76.30
2019-01-11T15:32:36.487Z,76.10
2019-01-11T15:35:10.961Z,76.20
2019-01-11T15:37:43.615Z,77.20
2019-01-11T15:40:28.938Z,78.30
2019-01-11T15:43:01.582Z,77.60
2019-01-11T15:45:33.918Z,79.00
2019-01-11T15:48:06.295Z,79.10
2019-01-11T15:50:52.695Z,78.90
2019-01-11T15:53:25.616Z,80.10
2019-01-11T15:56:02.946Z,79.60
2019-01-11T15:58:35.505Z,79.30
2019-01-11T16:01:08.595Z,79.90
2019-01-11T16:03:41.111Z,78.80
2019-01-11T16:06:41.252Z,78.30
2019-01-11T16:09:59.082Z,79.70
2019-01-11T16:13:03.487Z,79.50
2019-01-11T16:16:12.083Z,81.20
2019-01-11T16:18:44.515Z,80.60
2019-01-11T16:21:17.002Z,92.20
2019-01-11T16:23:49.281Z,96.50
2019-01-11T16:26:21.875Z,92.40
2019-01-11T16:28:54.339Z,88.60
2019-01-11T16:31:26.742Z,84.70
2019-01-11T16:33:59.208Z,84.80
2019-01-11T16:36:31.665Z,85.80
2019-01-11T16:39:05.655Z,86.20
2019-01-11T16:41:39.844Z,85.90
2019-01-11T16:44:12.293Z,87.50
2019-01-11T16:46:44.633Z,87.60
2019-01-11T16:49:16.937Z,87.60
2019-01-11T16:51:49.319Z,88.60
2019-01-11T16:54:21.971Z,88.70
2019-01-11T16:56:56.354Z,89.50
2019-01-11T16:59:28.895Z,89.00
2019-01-11T17:02:01.330Z,89.50
2019-01-11T17:04:34.307Z,90.30
2019-01-11T17:07:07.122Z,90.70
2019-01-11T17:09:39.504Z,91.00
2019-01-11T17:12:13.750Z,91.00
2019-01-11T17:14:46.285Z,91.10
2019-01-11T17:17:18.621Z,91.10
2019-01-11T17:19:51.049Z,91.30
2019-01-11T17:22:23.488Z,91.40
2019-01-11T17:24:55.718Z,92.20
2019-01-11T17:27:28.004Z,91.90
2019-01-11T17:30:00.429Z,91.80
2019-01-11T17:32:33.036Z,91.80
2019-01-11T17:35:06.259Z,91.80
2019-01-11T17:37:38.729Z,91.80
2019-01-11T17:40:13.479Z,92.10
2019-01-11T17:42:46.060Z,92.40
2019-01-11T17:45:18.617Z,92.90
2019-01-11T17:47:51.021Z,93.00
2019-01-11T17:50:23.822Z,93.20
2019-01-11T17:52:59.927Z,93.10
2019-01-11T17:55:30.806Z,93.10
2019-01-11T17:58:03.265Z,93.30
2019-01-11T18:00:36.547Z,93.30
2019-01-11T18:03:09.020Z,93.60
2019-01-11T18:05:41.977Z,93.80
2019-01-11T18:08:14.334Z,94.00
2019-01-11T18:10:46.648Z,93.70
2019-01-11T18:13:18.960Z,93.70
2019-01-11T18:15:51.550Z,93.90
2019-01-11T18:18:24.137Z,93.80
2019-01-11T18:20:56.724Z,94.20
2019-01-11T18:23:29.347Z,94.10
2019-01-11T18:26:01.792Z,94.00
2019-01-11T18:28:34.465Z,94.00
2019-01-11T18:31:07.267Z,93.90
2019-01-11T18:33:39.884Z,93.90
2019-01-11T18:36:12.679Z,93.90
2019-01-11T18:38:45.051Z,93.90
2019-01-11T18:41:18.094Z,94.00
2019-01-11T18:43:50.506Z,93.80
2019-01-11T18:46:23.329Z,93.70
2019-01-11T18:48:55.782Z,93.60
2019-01-11T18:51:28.545Z,94.00
2019-01-11T18:54:00.612Z,94.00
2019-01-11T18:56:34.828Z,93.80
2019-01-11T18:59:07.665Z,93.60
2019-01-11T19:01:41.950Z,93.80
2019-01-11T19:04:15.804Z,93.60
2019-01-11T19:06:48.272Z,93.50
2019-01-11T19:09:20.804Z,93.60
2019-01-11T19:11:53.235Z,94.00
2019-01-11T19:14:25.608Z,93.60
2019-01-11T19:16:58.111Z,93.70
2019-01-11T19:19:31.046Z,93.50
2019-01-11T19:22:03.863Z,94.10
2019-01-11T19:24:36.429Z,94.00
2019-01-11T19:27:09.332Z,94.00
2019-01-11T19:29:41.644Z,94.00
2019-01-11T19:32:15.862Z,94.20
2019-01-11T19:34:48.320Z,94.10
2019-01-11T19:37:22.941Z,94.60
2019-01-11T19:39:55.357Z,94.80
2019-01-11T19:42:28.473Z,95.20
2019-01-11T19:45:01.125Z,95.80
2019-01-11T19:47:33.641Z,96.10
2019-01-11T19:50:09.062Z,96.60
2019-01-11T19:52:41.736Z,96.60
2019-01-11T19:55:14.352Z,96.90
2019-01-11T19:57:47.290Z,97.80
2019-01-11T20:00:25.776Z,97.90
2019-01-11T20:02:58.434Z,98.40
2019-01-11T20:05:31.206Z,98.60
2019-01-11T20:08:03.754Z,99.40
2019-01-11T20:10:37.031Z,99.90
2019-01-11T20:13:09.525Z,99.90
2019-01-11T20:15:42.042Z,99.90
2019-01-11T20:18:14.631Z,99.90
2019-01-11T20:20:47.116Z,99.90
2019-01-11T20:23:19.496Z,99.90
2019-01-11T20:25:51.997Z,99.90
2019-01-11T20:28:24.539Z,99.90
2019-01-11T20:30:57.353Z,99.90
2019-01-11T20:33:29.889Z,99.90
2019-01-11T20:36:02.563Z,99.90
2019-01-11T20:38:35.094Z,99.90
2019-01-11T20:41:08.187Z,99.90
2019-01-11T20:43:40.833Z,99.90
2019-01-11T20:46:13.544Z,99.90
2019-01-11T20:48:45.840Z,99.90
2019-01-11T20:51:20.195Z,99.90
2019-01-11T20:53:52.688Z,99.90
2019-01-11T20:56:25.358Z,99.90
2019-01-11T20:58:57.632Z,99.90
2019-01-11T21:01:30.228Z,99.90
2019-01-11T21:04:02.955Z,99.90
2019-01-11T21:06:35.461Z,99.90
2019-01-11T21:09:10.312Z,99.90
2019-01-11T21:11:42.740Z,99.90
2019-01-11T21:14:15.191Z,99.90
2019-01-11T21:16:47.821Z,99.90
2019-01-11T21:19:20.523Z,99.90
2019-01-11T21:21:53.066Z,99.90
2019-01-11T21:24:26.497Z,99.90
2019-01-11T21:26:59.077Z,99.90
2019-01-11T21:29:31.445Z,99.90
2019-01-11T21:32:03.982Z,99.90
2019-01-11T21:34:36.869Z,99.90
2019-01-11T21:37:09.374Z,99.90
2019-01-11T21:39:41.724Z,99.90
2019-01-11T21:42:19.031Z,99.90
2019-01-11T21:44:48.247Z,99.90
2019-01-11T21:47:20.535Z,99.90
2019-01-11T21:49:54.636Z,99.90
2019-01-11T21:52:27.247Z,99.90
2019-01-11T21:55:08.657Z,99.90
2019-01-11T21:57:41.153Z,99.90
2019-01-11T22:00:24.374Z,99.90
2019-01-11T22:02:57.177Z,99.90
2019-01-11T22:05:30.484Z,99.90
2019-01-11T22:08:03.354Z,99.90
2019-01-11T22:10:36.002Z,99.90
2019-01-11T22:13:08.603Z,99.90
2019-01-11T22:15:41.141Z,99.90
2019-01-11T22:18:13.752Z,99.90
2019-01-11T22:20:46.877Z,99.90
2019-01-11T22:23:23.712Z,99.90
2019-01-11T22:25:53.612Z,99.90
2019-01-11T22:28:26.275Z,99.90
2019-01-11T22:30:59.114Z,99.90
2019-01-11T22:33:32.047Z,99.90
2019-01-11T22:36:04.557Z,99.90
2019-01-11T22:38:37.042Z,99.90
2019-01-11T22:41:09.785Z,99.90
2019-01-11T22:43:42.782Z,99.90
2019-01-11T22:46:15.104Z,99.90
2019-01-11T22:48:47.854Z,99.90
2019-01-11T22:51:20.292Z,99.90
2019-01-11T22:53:52.778Z,99.90
2019-01-11T22:56:25.165Z,99.90
2019-01-11T22:59:06.771Z,99.90
2019-01-11T23:02:24.220Z,99.90
2019-01-11T23:04:56.779Z,99.90
2019-01-11T23:07:58.844Z,99.90
2019-01-11T23:11:39.692Z,99.90
2019-01-11T23:14:12.193Z,99.90
2019-01-11T23:17:31.182Z,99.90
2019-01-11T23:20:03.564Z,99.90
2019-01-11T23:22:36.126Z,99.90
2019-01-11T23:25:09.362Z,99.90
2019-01-11T23:27:41.847Z,99.90
2019-01-11T23:30:17.501Z,99.90
2019-01-11T23:32:50.020Z,99.90
2019-01-11T23:35:23.963Z,99.90
2019-01-11T23:37:56.390Z,99.90
2019-01-11T23:40:29.046Z,99.90
2019-01-11T23:43:01.560Z,99.90
2019-01-11T23:45:35.477Z,99.90
2019-01-11T23:48:07.826Z,99.90
2019-01-11T23:50:40.163Z,99.90
2019-01-11T23:53:12.704Z,99.90
2019-01-11T23:55:45.205Z,99.90
2019-01-11T23:58:17.558Z,99.90
